Schuylkill — WDD9655 — position and weather

sailwx.info

Track history (hours):
 
Tides and Currents Weather Stations Pressure Air Temp Water Temp Dewpoint Dewpoint Depression Visibility Wind Speed Wind Dir Waves Ship Positions

Schuylkill

Owner: Vane Line Bunkering, Philadelphia, PA. More information available from US FCC via Universal Licensing System and Coast Guard Vessel Documentation Center.

Last reported at 2017-Sep-25 00:30 UTC. Time now 2017-Sep-25 00:46 UTC.
Position N 39°54' W 075°09'.

Length 26 m; draft 4.2 m.

Type: Towing. MMSI: 367314490.

Date/timePositionNaut miles runAvg speedWind from/ knotsBaromVisibWave heightAir tempDewpointWater temp
2017-Sep-25 00:30N 39°54' W 075°09'0 0.0
2017-Sep-25 00:01N 39°54' W 075°09'0 0.0
2017-Sep-24 23:31N 39°54' W 075°09'0 0.0
2017-Sep-24 23:01N 39°54' W 075°09'0 0.0
2017-Sep-24 22:31N 39°54' W 075°09'0 0.0
2017-Sep-24 22:00N 39°54' W 075°09'0 0.0
2017-Sep-24 21:30N 39°54' W 075°09'0 0.0
2017-Sep-24 21:00N 39°54' W 075°09'0 0.0
2017-Sep-24 20:30N 39°54' W 075°09'0 0.0
2017-Sep-24 20:01N 39°54' W 075°09'0 0.0
2017-Sep-24 19:31N 39°54' W 075°09'0 0.0
2017-Sep-24 19:00N 39°54' W 075°09'0 0.0
2017-Sep-24 18:30N 39°54' W 075°09'0 0.0
2017-Sep-24 18:01N 39°54' W 075°09'0 0.0
2017-Sep-24 17:31N 39°54' W 075°09'0 0.0
2017-Sep-24 17:00N 39°54' W 075°09'0 0.0
2017-Sep-24 16:30N 39°54' W 075°09'0 0.0
2017-Sep-24 16:01N 39°54' W 075°09'0 0.0
2017-Sep-24 15:30N 39°54' W 075°09'0 0.0
2017-Sep-24 15:00N 39°54' W 075°09'0 0.0
2017-Sep-24 14:31N 39°54' W 075°09'0 0.0
2017-Sep-24 14:01N 39°54' W 075°09'0 0.0
2017-Sep-24 13:31N 39°54' W 075°09'0 0.0
2017-Sep-24 13:01N 39°54' W 075°09'0 0.0
2017-Sep-24 12:31N 39°54' W 075°09'0 0.0
2017-Sep-24 12:01N 39°54' W 075°09'0 0.0
2017-Sep-24 11:31N 39°54' W 075°09'0 0.0
2017-Sep-24 11:01N 39°54' W 075°09'0 0.0
2017-Sep-24 10:31N 39°54' W 075°09'0 0.0
2017-Sep-24 10:01N 39°54' W 075°09'0 0.0
2017-Sep-24 09:31N 39°54' W 075°09'0 0.0
2017-Sep-24 09:01N 39°54' W 075°09'0 0.0
2017-Sep-24 08:31N 39°54' W 075°09'0 0.0
2017-Sep-24 08:00N 39°54' W 075°09'0 0.0
2017-Sep-24 07:31N 39°54' W 075°09'0 0.0
2017-Sep-24 07:01N 39°54' W 075°09'0 0.0
2017-Sep-24 06:31N 39°54' W 075°09'0 0.0
2017-Sep-24 06:01N 39°54' W 075°09'0 0.0
2017-Sep-24 05:31N 39°54' W 075°09'0 0.0
2017-Sep-24 05:01N 39°54' W 075°09'0 0.0
2017-Sep-24 04:31N 39°54' W 075°09'0 0.0
2017-Sep-24 04:01N 39°54' W 075°09'0 0.0
2017-Sep-24 03:31N 39°54' W 075°09'0 0.0
2017-Sep-24 03:00N 39°54' W 075°09'0 0.0
2017-Sep-24 02:31N 39°54' W 075°09'0 0.0
2017-Sep-24 02:01N 39°54' W 075°09'0 0.0
2017-Sep-24 01:31N 39°54' W 075°09'0 0.0
2017-Sep-24 01:01N 39°54' W 075°09'0 0.0
2017-Sep-24 00:30N 39°54' W 075°09'0 0.2
2017-Sep-24 00:00N 39°54' W 075°08'0 0.0
2017-Sep-23 23:31N 39°54' W 075°08'0 0.1
2017-Sep-23 23:00N 39°54' W 075°09'0 0.0
2017-Sep-23 22:30N 39°54' W 075°09'0 0.0
2017-Sep-23 22:00N 39°54' W 075°09'0 0.0
2017-Sep-23 21:31N 39°54' W 075°09'0 0.0
2017-Sep-23 21:00N 39°54' W 075°09'0 0.0
2017-Sep-23 20:30N 39°54' W 075°09'0 0.0
2017-Sep-23 20:00N 39°54' W 075°09'76 1.8
2017-Sep-22 02:00N 39°03' W 076°21'4 7.9
2017-Sep-22 01:30N 38°59' W 076°23'4 8.1
2017-Sep-22 01:00N 38°55' W 076°24'5 8.4
2017-Sep-22 00:27N 38°51' W 076°26'4 8.4
2017-Sep-21 23:58N 38°47' W 076°27'3 0.1
2017-Sep-20 08:51N 38°49' W 076°26'2 7.0
2017-Sep-20 08:30N 38°52' W 076°26'4 7.2
2017-Sep-20 08:00N 38°55' W 076°25'4 7.3
2017-Sep-20 07:30N 38°59' W 076°23'4 7.5
2017-Sep-20 07:00N 39°02' W 076°22'4 7.4
2017-Sep-20 06:30N 39°06' W 076°20'4 7.8
2017-Sep-20 06:00N 39°09' W 076°19'4 8.2
2017-Sep-20 05:30N 39°13' W 076°15'4 8.6
2017-Sep-20 05:00N 39°17' W 076°14'4 8.4
2017-Sep-20 04:30N 39°20' W 076°11'4 8.5
2017-Sep-20 04:00N 39°23' W 076°06'4 7.7
2017-Sep-20 03:30N 39°25' W 076°02'4 8.0
2017-Sep-20 03:00N 39°28' W 075°59'4 7.7
2017-Sep-20 02:30N 39°30' W 075°55'4 7.5
2017-Sep-20 02:00N 39°32' W 075°50'3 6.8
2017-Sep-20 01:30N 39°32' W 075°46'4 7.2
2017-Sep-20 01:00N 39°33' W 075°41'3 6.7
2017-Sep-20 00:30N 39°33' W 075°37'3 6.1
2017-Sep-20 00:00N 39°34' W 075°33'2 4.3
2017-Sep-19 23:30N 39°35' W 075°36'0 0.0
2017-Sep-19 23:00N 39°35' W 075°36'0 0.0
2017-Sep-19 22:30N 39°35' W 075°36'0 0.0
2017-Sep-19 22:00N 39°35' W 075°36'0 0.0
2017-Sep-19 21:30N 39°35' W 075°36'0 0.0
2017-Sep-19 21:00N 39°35' W 075°36'0 0.0
2017-Sep-19 20:30N 39°35' W 075°36'0 0.0
2017-Sep-19 20:00N 39°35' W 075°36'0 0.0
2017-Sep-19 19:30N 39°35' W 075°36'0 0.0
2017-Sep-19 19:00N 39°35' W 075°36'0 0.0
2017-Sep-19 18:30N 39°35' W 075°36'0 0.0
2017-Sep-19 18:00N 39°35' W 075°36'0 0.0
2017-Sep-19 17:30N 39°35' W 075°36'0 0.0
2017-Sep-19 17:00N 39°35' W 075°36'0 0.0
2017-Sep-19 16:30N 39°35' W 075°36'0 0.0
2017-Sep-19 16:00N 39°35' W 075°36'0 0.0
2017-Sep-19 15:30N 39°35' W 075°36'0 0.0
2017-Sep-19 15:00N 39°35' W 075°36'0 0.0
2017-Sep-19 14:30N 39°35' W 075°36'0 0.0
2017-Sep-19 14:00N 39°35' W 075°36'0 0.0
2017-Sep-19 13:30N 39°35' W 075°36'2 4.1
2017-Sep-19 13:00N 39°34' W 075°33'1 2.2
2017-Sep-19 12:30N 39°35' W 075°33'0 0.1
2017-Sep-19 12:00N 39°35' W 075°33'0 0.1
2017-Sep-19 11:30N 39°35' W 075°33'0 0.0
2017-Sep-19 11:00N 39°35' W 075°33'0 0.0
2017-Sep-19 10:30N 39°35' W 075°33'0 0.0
2017-Sep-19 10:00N 39°35' W 075°33'0 0.0
2017-Sep-19 09:30N 39°35' W 075°33'0 0.0
2017-Sep-19 09:00N 39°35' W 075°33'0 0.0
2017-Sep-19 08:30N 39°35' W 075°33'0 0.0
2017-Sep-19 08:00N 39°35' W 075°33'0 0.0
2017-Sep-19 07:31N 39°35' W 075°33'0 0.0
2017-Sep-19 07:01N 39°35' W 075°33'0 0.0
2017-Sep-19 06:30N 39°35' W 075°33'0 0.1
2017-Sep-19 06:00N 39°35' W 075°33'0 0.0
2017-Sep-19 05:30N 39°35' W 075°33'0 0.1
2017-Sep-19 05:00N 39°35' W 075°33'0 0.1
2017-Sep-19 04:31N 39°35' W 075°33'0 0.1
2017-Sep-19 04:00N 39°35' W 075°33'0 0.1
2017-Sep-19 03:30N 39°35' W 075°33'0 0.1
2017-Sep-19 03:00N 39°35' W 075°33'0 0.0
2017-Sep-19 02:30N 39°35' W 075°33'0 0.1
2017-Sep-19 02:00N 39°35' W 075°33'0 0.0
2017-Sep-19 01:30N 39°35' W 075°33'0 0.0
2017-Sep-19 01:00N 39°35' W 075°33'0 0.0
2017-Sep-19 00:30N 39°35' W 075°33'0 0.0
2017-Sep-19 00:00N 39°35' W 075°33'0 0.0
2017-Sep-18 23:30N 39°35' W 075°33'0 0.1
2017-Sep-18 23:00N 39°35' W 075°33'0 0.2
2017-Sep-18 22:30N 39°35' W 075°33'0 0.1
2017-Sep-18 22:00N 39°35' W 075°33'0 0.0
2017-Sep-18 21:30N 39°35' W 075°33'0 0.0
2017-Sep-18 21:00N 39°35' W 075°33'0 0.0
2017-Sep-18 20:30N 39°35' W 075°33'0 0.0
2017-Sep-18 20:01N 39°35' W 075°33'0 0.7
2017-Sep-18 19:30N 39°35' W 075°33'4 8.8
2017-Sep-18 19:00N 39°39' W 075°33'510.3
2017-Sep-18 18:30N 39°44' W 075°30'5 9.5
2017-Sep-18 18:00N 39°48' W 075°26'4 8.9
2017-Sep-18 17:30N 39°50' W 075°22'4 7.7
2017-Sep-18 17:00N 39°51' W 075°17'4 7.6
2017-Sep-18 16:30N 39°53' W 075°12'1 2.2
2017-Sep-18 16:00N 39°54' W 075°12'1 2.2
2017-Sep-18 15:30N 39°55' W 075°13'1 2.2
2017-Sep-18 15:00N 39°54' W 075°12'0 0.4
2017-Sep-18 14:30N 39°54' W 075°12'0 0.0
2017-Sep-18 14:00N 39°54' W 075°12'0 0.0
2017-Sep-18 13:30N 39°54' W 075°12'0 0.0
2017-Sep-18 13:00N 39°54' W 075°12'0 0.0
2017-Sep-18 12:30N 39°54' W 075°12'0 0.4
2017-Sep-18 12:00N 39°54' W 075°12'3 5.4
2017-Sep-18 11:30N 39°51' W 075°14'3 6.2
2017-Sep-18 11:00N 39°51' W 075°18'3 5.8
2017-Sep-18 10:30N 39°50' W 075°22'2 4.9
2017-Sep-18 10:00N 39°48' W 075°24'2 3.9
2017-Sep-18 09:30N 39°48' W 075°26'3 6.3
2017-Sep-18 09:01N 39°45' W 075°29'3 6.0
2017-Sep-18 08:30N 39°42' W 075°31'3 6.0
2017-Sep-18 08:01N 39°40' W 075°32'3 5.8
2017-Sep-18 07:30N 39°38' W 075°35'3 6.1
2017-Sep-18 07:00N 39°35' W 075°33'3 5.3
2017-Sep-18 06:31N 39°33' W 075°36'3 6.8
2017-Sep-18 06:01N 39°33' W 075°40'3 6.6
2017-Sep-18 05:31N 39°32' W 075°45'3 6.4
2017-Sep-18 05:00N 39°32' W 075°49'3 5.8
2017-Sep-18 04:30N 39°31' W 075°52'3 6.3
2017-Sep-18 04:00N 39°30' W 075°56'3 6.7
2017-Sep-18 03:31N 39°27' W 075°59'3 6.8
2017-Sep-18 03:01N 39°25' W 076°02'4 7.0
2017-Sep-18 02:30N 39°23' W 076°06'4 7.3
2017-Sep-18 02:01N 39°21' W 076°10'4 7.3
2017-Sep-18 01:30N 39°18' W 076°13'4 7.7
2017-Sep-18 01:01N 39°15' W 076°14'6 7.7
2017-Sep-18 00:16N 39°10' W 076°19'2 7.9
2017-Sep-17 23:59N 39°08' W 076°20'8 6.9
2017-Sep-17 22:50N 39°00' W 076°23'53 6.2
2017-Sep-17 14:23N 38°13' W 075°53'3 4.4
2017-Sep-17 13:39N 38°15' W 075°51'1 6.3
2017-Sep-17 13:29N 38°15' W 075°49'3 5.2
2017-Sep-17 12:59N 38°16' W 075°46'3 5.6
2017-Sep-17 12:26N 38°19' W 075°45'3 4.7
2017-Sep-17 11:42N 38°20' W 075°40'1 5.0
2017-Sep-17 11:26N 38°21' W 075°39'39 1.8
2017-Sep-16 13:42N 38°32' W 076°26'2 7.9
2017-Sep-16 13:24N 38°34' W 076°28'3 7.9
2017-Sep-16 13:00N 38°37' W 076°28'4 8.1
2017-Sep-16 12:30N 38°41' W 076°28'4 8.1
2017-Sep-16 12:01N 38°45' W 076°28'4 8.3
2017-Sep-16 11:30N 38°49' W 076°27'4 8.3
2017-Sep-16 11:00N 38°53' W 076°26'4 8.3
2017-Sep-16 10:31N 38°57' W 076°24'4 8.1
2017-Sep-16 10:01N 39°01' W 076°22'4 7.6
2017-Sep-16 09:31N 39°04' W 076°21'4 7.4
2017-Sep-16 09:00N 39°08' W 076°20'3 6.8
2017-Sep-16 08:30N 39°11' W 076°18'3 6.4
2017-Sep-16 08:00N 39°13' W 076°15'3 6.4
2017-Sep-16 07:31N 39°16' W 076°14'3 6.3
2017-Sep-16 07:00N 39°19' W 076°12'3 6.5
2017-Sep-16 06:30N 39°21' W 076°09'4 7.1
2017-Sep-16 06:00N 39°23' W 076°05'4 7.4
2017-Sep-16 05:30N 39°25' W 076°01'4 7.9
2017-Sep-16 05:00N 39°28' W 075°58'4 8.2
2017-Sep-16 04:31N 39°31' W 075°54'4 8.1
2017-Sep-16 04:01N 39°32' W 075°48'4 8.7
2017-Sep-16 03:31N 39°33' W 075°43'4 8.7
2017-Sep-16 03:01N 39°33' W 075°37'4 7.0
2017-Sep-16 02:31N 39°34' W 075°33'4 7.3
2017-Sep-16 02:01N 39°38' W 075°34'4 7.1
2017-Sep-16 01:30N 39°41' W 075°31'3 6.8
2017-Sep-16 01:00N 39°44' W 075°30'3 6.1
2017-Sep-16 00:30N 39°47' W 075°28'3 5.7
2017-Sep-16 00:01N 39°48' W 075°25'3 5.6
2017-Sep-15 23:30N 39°50' W 075°22'2 5.0
2017-Sep-15 23:00N 39°51' W 075°19'3 5.6
2017-Sep-15 22:30N 39°51' W 075°16'3 5.9
2017-Sep-15 22:01N 39°52' W 075°12'2 4.8
2017-Sep-15 21:30N 39°53' W 075°09'0 0.0
2017-Sep-15 21:01N 39°53' W 075°09'1 2.4
2017-Sep-15 20:31N 39°54' W 075°09'0 0.0
2017-Sep-15 20:00N 39°54' W 075°09'0 0.0
2017-Sep-15 19:31N 39°54' W 075°09'0 0.0
2017-Sep-15 19:00N 39°54' W 075°09'0 0.0
2017-Sep-15 18:30N 39°54' W 075°09'0 0.0
2017-Sep-15 18:01N 39°54' W 075°09'0 0.0
2017-Sep-15 17:30N 39°54' W 075°09'0 0.0
2017-Sep-15 17:01N 39°54' W 075°09'0 0.0
2017-Sep-15 16:30N 39°54' W 075°09'0 0.0
2017-Sep-15 16:00N 39°54' W 075°09'0 0.0
2017-Sep-15 15:30N 39°54' W 075°09'0 0.0
2017-Sep-15 15:01N 39°54' W 075°09'0 0.0
2017-Sep-15 14:30N 39°54' W 075°09'0 0.2
2017-Sep-15 14:01N 39°54' W 075°08'1 2.4
2017-Sep-15 13:31N 39°53' W 075°09'2 4.8
2017-Sep-15 13:00N 39°52' W 075°12'0 0.1
2017-Sep-15 12:31N 39°52' W 075°12'0 0.0
2017-Sep-15 12:01N 39°52' W 075°12'0 0.0
2017-Sep-15 11:31N 39°52' W 075°12'0 0.1
2017-Sep-15 11:00N 39°52' W 075°12'0 0.0
2017-Sep-15 10:30N 39°52' W 075°12'0 0.0
2017-Sep-15 10:01N 39°52' W 075°12'0 0.0
2017-Sep-15 09:31N 39°52' W 075°12'0 0.3
2017-Sep-15 09:00N 39°52' W 075°12'0 0.0
2017-Sep-15 08:31N 39°52' W 075°12'0 0.1
2017-Sep-15 08:01N 39°52' W 075°13'0 0.0
2017-Sep-15 07:30N 39°52' W 075°13'0 0.0
2017-Sep-15 07:01N 39°52' W 075°13'0 0.0
2017-Sep-15 06:30N 39°52' W 075°13'0 0.0
2017-Sep-15 06:01N 39°52' W 075°13'0 0.0
2017-Sep-15 05:30N 39°52' W 075°13'0 0.0
2017-Sep-15 05:00N 39°52' W 075°13'0 0.0
2017-Sep-15 04:30N 39°52' W 075°13'0 0.0
2017-Sep-15 04:00N 39°52' W 075°13'0 0.0
2017-Sep-15 03:30N 39°52' W 075°13'0 0.1
2017-Sep-15 03:00N 39°52' W 075°12'0 0.2
2017-Sep-15 02:31N 39°52' W 075°12'0 0.1
2017-Sep-15 02:00N 39°52' W 075°12'0 0.0
2017-Sep-15 01:30N 39°52' W 075°12'0 0.0
2017-Sep-15 01:00N 39°52' W 075°12'  
Track history (hours):
 
Tides and Currents Weather Stations Pressure Air Temp Water Temp Dewpoint Dewpoint Depression Visibility Wind Speed Wind Dir Waves Ship Positions

Schuylkill

Owner: Vane Line Bunkering, Philadelphia, PA. More information available from US FCC via Universal Licensing System and Coast Guard Vessel Documentation Center.

Last reported at 2017-Sep-25 00:30 UTC. Time now 2017-Sep-25 00:46 UTC.
Position N 39°54' W 075°09'.

Length 26 m; draft 4.2 m.

Type: Towing. MMSI: 367314490.

Date/timePositionNaut miles runAvg speedWind from/ knotsBaromVisibWave heightAir tempDewpointWater temp
2017-Sep-25 00:30N 39°54' W 075°09'0 0.0
2017-Sep-25 00:01N 39°54' W 075°09'0 0.0
2017-Sep-24 23:31N 39°54' W 075°09'0 0.0
2017-Sep-24 23:01N 39°54' W 075°09'0 0.0
2017-Sep-24 22:31N 39°54' W 075°09'0 0.0
2017-Sep-24 22:00N 39°54' W 075°09'0 0.0
2017-Sep-24 21:30N 39°54' W 075°09'0 0.0
2017-Sep-24 21:00N 39°54' W 075°09'0 0.0
2017-Sep-24 20:30N 39°54' W 075°09'0 0.0
2017-Sep-24 20:01N 39°54' W 075°09'0 0.0
2017-Sep-24 19:31N 39°54' W 075°09'0 0.0
2017-Sep-24 19:00N 39°54' W 075°09'0 0.0
2017-Sep-24 18:30N 39°54' W 075°09'0 0.0
2017-Sep-24 18:01N 39°54' W 075°09'0 0.0
2017-Sep-24 17:31N 39°54' W 075°09'0 0.0
2017-Sep-24 17:00N 39°54' W 075°09'0 0.0
2017-Sep-24 16:30N 39°54' W 075°09'0 0.0
2017-Sep-24 16:01N 39°54' W 075°09'0 0.0
2017-Sep-24 15:30N 39°54' W 075°09'0 0.0
2017-Sep-24 15:00N 39°54' W 075°09'0 0.0
2017-Sep-24 14:31N 39°54' W 075°09'0 0.0
2017-Sep-24 14:01N 39°54' W 075°09'0 0.0
2017-Sep-24 13:31N 39°54' W 075°09'0 0.0
2017-Sep-24 13:01N 39°54' W 075°09'0 0.0
2017-Sep-24 12:31N 39°54' W 075°09'0 0.0
2017-Sep-24 12:01N 39°54' W 075°09'0 0.0
2017-Sep-24 11:31N 39°54' W 075°09'0 0.0
2017-Sep-24 11:01N 39°54' W 075°09'0 0.0
2017-Sep-24 10:31N 39°54' W 075°09'0 0.0
2017-Sep-24 10:01N 39°54' W 075°09'0 0.0
2017-Sep-24 09:31N 39°54' W 075°09'0 0.0
2017-Sep-24 09:01N 39°54' W 075°09'0 0.0
2017-Sep-24 08:31N 39°54' W 075°09'0 0.0
2017-Sep-24 08:00N 39°54' W 075°09'0 0.0
2017-Sep-24 07:31N 39°54' W 075°09'0 0.0
2017-Sep-24 07:01N 39°54' W 075°09'0 0.0
2017-Sep-24 06:31N 39°54' W 075°09'0 0.0
2017-Sep-24 06:01N 39°54' W 075°09'0 0.0
2017-Sep-24 05:31N 39°54' W 075°09'0 0.0
2017-Sep-24 05:01N 39°54' W 075°09'0 0.0
2017-Sep-24 04:31N 39°54' W 075°09'0 0.0
2017-Sep-24 04:01N 39°54' W 075°09'0 0.0
2017-Sep-24 03:31N 39°54' W 075°09'0 0.0
2017-Sep-24 03:00N 39°54' W 075°09'0 0.0
2017-Sep-24 02:31N 39°54' W 075°09'0 0.0
2017-Sep-24 02:01N 39°54' W 075°09'0 0.0
2017-Sep-24 01:31N 39°54' W 075°09'0 0.0
2017-Sep-24 01:01N 39°54' W 075°09'0 0.0
2017-Sep-24 00:30N 39°54' W 075°09'0 0.2
2017-Sep-24 00:00N 39°54' W 075°08'0 0.0
2017-Sep-23 23:31N 39°54' W 075°08'0 0.1
2017-Sep-23 23:00N 39°54' W 075°09'0 0.0
2017-Sep-23 22:30N 39°54' W 075°09'0 0.0
2017-Sep-23 22:00N 39°54' W 075°09'0 0.0
2017-Sep-23 21:31N 39°54' W 075°09'0 0.0
2017-Sep-23 21:00N 39°54' W 075°09'0 0.0
2017-Sep-23 20:30N 39°54' W 075°09'0 0.0
2017-Sep-23 20:00N 39°54' W 075°09'76 1.8
2017-Sep-22 02:00N 39°03' W 076°21'4 7.9
2017-Sep-22 01:30N 38°59' W 076°23'4 8.1
2017-Sep-22 01:00N 38°55' W 076°24'5 8.4
2017-Sep-22 00:27N 38°51' W 076°26'4 8.4
2017-Sep-21 23:58N 38°47' W 076°27'3 0.1
2017-Sep-20 08:51N 38°49' W 076°26'2 7.0
2017-Sep-20 08:30N 38°52' W 076°26'4 7.2
2017-Sep-20 08:00N 38°55' W 076°25'4 7.3
2017-Sep-20 07:30N 38°59' W 076°23'4 7.5
2017-Sep-20 07:00N 39°02' W 076°22'4 7.4
2017-Sep-20 06:30N 39°06' W 076°20'4 7.8
2017-Sep-20 06:00N 39°09' W 076°19'4 8.2
2017-Sep-20 05:30N 39°13' W 076°15'4 8.6
2017-Sep-20 05:00N 39°17' W 076°14'4 8.4
2017-Sep-20 04:30N 39°20' W 076°11'4 8.5
2017-Sep-20 04:00N 39°23' W 076°06'4 7.7
2017-Sep-20 03:30N 39°25' W 076°02'4 8.0
2017-Sep-20 03:00N 39°28' W 075°59'4 7.7
2017-Sep-20 02:30N 39°30' W 075°55'4 7.5
2017-Sep-20 02:00N 39°32' W 075°50'3 6.8
2017-Sep-20 01:30N 39°32' W 075°46'4 7.2
2017-Sep-20 01:00N 39°33' W 075°41'3 6.7
2017-Sep-20 00:30N 39°33' W 075°37'3 6.1
2017-Sep-20 00:00N 39°34' W 075°33'2 4.3
2017-Sep-19 23:30N 39°35' W 075°36'0 0.0
2017-Sep-19 23:00N 39°35' W 075°36'0 0.0
2017-Sep-19 22:30N 39°35' W 075°36'0 0.0
2017-Sep-19 22:00N 39°35' W 075°36'0 0.0
2017-Sep-19 21:30N 39°35' W 075°36'0 0.0
2017-Sep-19 21:00N 39°35' W 075°36'0 0.0
2017-Sep-19 20:30N 39°35' W 075°36'0 0.0
2017-Sep-19 20:00N 39°35' W 075°36'0 0.0
2017-Sep-19 19:30N 39°35' W 075°36'0 0.0
2017-Sep-19 19:00N 39°35' W 075°36'0 0.0
2017-Sep-19 18:30N 39°35' W 075°36'0 0.0
2017-Sep-19 18:00N 39°35' W 075°36'0 0.0
2017-Sep-19 17:30N 39°35' W 075°36'0 0.0
2017-Sep-19 17:00N 39°35' W 075°36'0 0.0
2017-Sep-19 16:30N 39°35' W 075°36'0 0.0
2017-Sep-19 16:00N 39°35' W 075°36'0 0.0
2017-Sep-19 15:30N 39°35' W 075°36'0 0.0
2017-Sep-19 15:00N 39°35' W 075°36'0 0.0
2017-Sep-19 14:30N 39°35' W 075°36'0 0.0
2017-Sep-19 14:00N 39°35' W 075°36'0 0.0
2017-Sep-19 13:30N 39°35' W 075°36'2 4.1
2017-Sep-19 13:00N 39°34' W 075°33'1 2.2
2017-Sep-19 12:30N 39°35' W 075°33'0 0.1
2017-Sep-19 12:00N 39°35' W 075°33'0 0.1
2017-Sep-19 11:30N 39°35' W 075°33'0 0.0
2017-Sep-19 11:00N 39°35' W 075°33'0 0.0
2017-Sep-19 10:30N 39°35' W 075°33'0 0.0
2017-Sep-19 10:00N 39°35' W 075°33'0 0.0
2017-Sep-19 09:30N 39°35' W 075°33'0 0.0
2017-Sep-19 09:00N 39°35' W 075°33'0 0.0
2017-Sep-19 08:30N 39°35' W 075°33'0 0.0
2017-Sep-19 08:00N 39°35' W 075°33'0 0.0
2017-Sep-19 07:31N 39°35' W 075°33'0 0.0
2017-Sep-19 07:01N 39°35' W 075°33'0 0.0
2017-Sep-19 06:30N 39°35' W 075°33'0 0.1
2017-Sep-19 06:00N 39°35' W 075°33'0 0.0
2017-Sep-19 05:30N 39°35' W 075°33'0 0.1
2017-Sep-19 05:00N 39°35' W 075°33'0 0.1
2017-Sep-19 04:31N 39°35' W 075°33'0 0.1
2017-Sep-19 04:00N 39°35' W 075°33'0 0.1
2017-Sep-19 03:30N 39°35' W 075°33'0 0.1
2017-Sep-19 03:00N 39°35' W 075°33'0 0.0
2017-Sep-19 02:30N 39°35' W 075°33'0 0.1
2017-Sep-19 02:00N 39°35' W 075°33'0 0.0
2017-Sep-19 01:30N 39°35' W 075°33'0 0.0
2017-Sep-19 01:00N 39°35' W 075°33'0 0.0
2017-Sep-19 00:30N 39°35' W 075°33'0 0.0
2017-Sep-19 00:00N 39°35' W 075°33'0 0.0
2017-Sep-18 23:30N 39°35' W 075°33'0 0.1
2017-Sep-18 23:00N 39°35' W 075°33'0 0.2
2017-Sep-18 22:30N 39°35' W 075°33'0 0.1
2017-Sep-18 22:00N 39°35' W 075°33'0 0.0
2017-Sep-18 21:30N 39°35' W 075°33'0 0.0
2017-Sep-18 21:00N 39°35' W 075°33'0 0.0
2017-Sep-18 20:30N 39°35' W 075°33'0 0.0
2017-Sep-18 20:01N 39°35' W 075°33'0 0.7
2017-Sep-18 19:30N 39°35' W 075°33'4 8.8
2017-Sep-18 19:00N 39°39' W 075°33'510.3
2017-Sep-18 18:30N 39°44' W 075°30'5 9.5
2017-Sep-18 18:00N 39°48' W 075°26'4 8.9
2017-Sep-18 17:30N 39°50' W 075°22'4 7.7
2017-Sep-18 17:00N 39°51' W 075°17'4 7.6
2017-Sep-18 16:30N 39°53' W 075°12'1 2.2
2017-Sep-18 16:00N 39°54' W 075°12'1 2.2
2017-Sep-18 15:30N 39°55' W 075°13'1 2.2
2017-Sep-18 15:00N 39°54' W 075°12'0 0.4
2017-Sep-18 14:30N 39°54' W 075°12'0 0.0
2017-Sep-18 14:00N 39°54' W 075°12'0 0.0
2017-Sep-18 13:30N 39°54' W 075°12'0 0.0
2017-Sep-18 13:00N 39°54' W 075°12'0 0.0
2017-Sep-18 12:30N 39°54' W 075°12'0 0.4
2017-Sep-18 12:00N 39°54' W 075°12'3 5.4
2017-Sep-18 11:30N 39°51' W 075°14'3 6.2
2017-Sep-18 11:00N 39°51' W 075°18'3 5.8
2017-Sep-18 10:30N 39°50' W 075°22'2 4.9
2017-Sep-18 10:00N 39°48' W 075°24'2 3.9
2017-Sep-18 09:30N 39°48' W 075°26'3 6.3
2017-Sep-18 09:01N 39°45' W 075°29'3 6.0
2017-Sep-18 08:30N 39°42' W 075°31'3 6.0
2017-Sep-18 08:01N 39°40' W 075°32'3 5.8
2017-Sep-18 07:30N 39°38' W 075°35'3 6.1
2017-Sep-18 07:00N 39°35' W 075°33'3 5.3
2017-Sep-18 06:31N 39°33' W 075°36'3 6.8
2017-Sep-18 06:01N 39°33' W 075°40'3 6.6
2017-Sep-18 05:31N 39°32' W 075°45'3 6.4
2017-Sep-18 05:00N 39°32' W 075°49'3 5.8
2017-Sep-18 04:30N 39°31' W 075°52'3 6.3
2017-Sep-18 04:00N 39°30' W 075°56'3 6.7
2017-Sep-18 03:31N 39°27' W 075°59'3 6.8
2017-Sep-18 03:01N 39°25' W 076°02'4 7.0
2017-Sep-18 02:30N 39°23' W 076°06'4 7.3
2017-Sep-18 02:01N 39°21' W 076°10'4 7.3
2017-Sep-18 01:30N 39°18' W 076°13'4 7.7
2017-Sep-18 01:01N 39°15' W 076°14'6 7.7
2017-Sep-18 00:16N 39°10' W 076°19'2 7.9
2017-Sep-17 23:59N 39°08' W 076°20'8 6.9
2017-Sep-17 22:50N 39°00' W 076°23'53 6.2
2017-Sep-17 14:23N 38°13' W 075°53'3 4.4
2017-Sep-17 13:39N 38°15' W 075°51'1 6.3
2017-Sep-17 13:29N 38°15' W 075°49'3 5.2
2017-Sep-17 12:59N 38°16' W 075°46'3 5.6
2017-Sep-17 12:26N 38°19' W 075°45'3 4.7
2017-Sep-17 11:42N 38°20' W 075°40'1 5.0
2017-Sep-17 11:26N 38°21' W 075°39'39 1.8
2017-Sep-16 13:42N 38°32' W 076°26'2 7.9
2017-Sep-16 13:24N 38°34' W 076°28'3 7.9
2017-Sep-16 13:00N 38°37' W 076°28'4 8.1
2017-Sep-16 12:30N 38°41' W 076°28'4 8.1
2017-Sep-16 12:01N 38°45' W 076°28'4 8.3
2017-Sep-16 11:30N 38°49' W 076°27'4 8.3
2017-Sep-16 11:00N 38°53' W 076°26'4 8.3
2017-Sep-16 10:31N 38°57' W 076°24'4 8.1
2017-Sep-16 10:01N 39°01' W 076°22'4 7.6
2017-Sep-16 09:31N 39°04' W 076°21'4 7.4
2017-Sep-16 09:00N 39°08' W 076°20'3 6.8
2017-Sep-16 08:30N 39°11' W 076°18'3 6.4
2017-Sep-16 08:00N 39°13' W 076°15'3 6.4
2017-Sep-16 07:31N 39°16' W 076°14'3 6.3
2017-Sep-16 07:00N 39°19' W 076°12'3 6.5
2017-Sep-16 06:30N 39°21' W 076°09'4 7.1
2017-Sep-16 06:00N 39°23' W 076°05'4 7.4
2017-Sep-16 05:30N 39°25' W 076°01'4 7.9
2017-Sep-16 05:00N 39°28' W 075°58'4 8.2
2017-Sep-16 04:31N 39°31' W 075°54'4 8.1
2017-Sep-16 04:01N 39°32' W 075°48'4 8.7
2017-Sep-16 03:31N 39°33' W 075°43'4 8.7
2017-Sep-16 03:01N 39°33' W 075°37'4 7.0
2017-Sep-16 02:31N 39°34' W 075°33'4 7.3
2017-Sep-16 02:01N 39°38' W 075°34'4 7.1
2017-Sep-16 01:30N 39°41' W 075°31'3 6.8
2017-Sep-16 01:00N 39°44' W 075°30'3 6.1
2017-Sep-16 00:30N 39°47' W 075°28'3 5.7
2017-Sep-16 00:01N 39°48' W 075°25'3 5.6
2017-Sep-15 23:30N 39°50' W 075°22'2 5.0
2017-Sep-15 23:00N 39°51' W 075°19'3 5.6
2017-Sep-15 22:30N 39°51' W 075°16'3 5.9
2017-Sep-15 22:01N 39°52' W 075°12'2 4.8
2017-Sep-15 21:30N 39°53' W 075°09'0 0.0
2017-Sep-15 21:01N 39°53' W 075°09'1 2.4
2017-Sep-15 20:31N 39°54' W 075°09'0 0.0
2017-Sep-15 20:00N 39°54' W 075°09'0 0.0
2017-Sep-15 19:31N 39°54' W 075°09'0 0.0
2017-Sep-15 19:00N 39°54' W 075°09'0 0.0
2017-Sep-15 18:30N 39°54' W 075°09'0 0.0
2017-Sep-15 18:01N 39°54' W 075°09'0 0.0
2017-Sep-15 17:30N 39°54' W 075°09'0 0.0
2017-Sep-15 17:01N 39°54' W 075°09'0 0.0
2017-Sep-15 16:30N 39°54' W 075°09'0 0.0
2017-Sep-15 16:00N 39°54' W 075°09'0 0.0
2017-Sep-15 15:30N 39°54' W 075°09'0 0.0
2017-Sep-15 15:01N 39°54' W 075°09'0 0.0
2017-Sep-15 14:30N 39°54' W 075°09'0 0.2
2017-Sep-15 14:01N 39°54' W 075°08'1 2.4
2017-Sep-15 13:31N 39°53' W 075°09'2 4.8
2017-Sep-15 13:00N 39°52' W 075°12'0 0.1
2017-Sep-15 12:31N 39°52' W 075°12'0 0.0
2017-Sep-15 12:01N 39°52' W 075°12'0 0.0
2017-Sep-15 11:31N 39°52' W 075°12'0 0.1
2017-Sep-15 11:00N 39°52' W 075°12'0 0.0
2017-Sep-15 10:30N 39°52' W 075°12'0 0.0
2017-Sep-15 10:01N 39°52' W 075°12'0 0.0
2017-Sep-15 09:31N 39°52' W 075°12'0 0.3
2017-Sep-15 09:00N 39°52' W 075°12'0 0.0
2017-Sep-15 08:31N 39°52' W 075°12'0 0.1
2017-Sep-15 08:01N 39°52' W 075°13'0 0.0
2017-Sep-15 07:30N 39°52' W 075°13'0 0.0
2017-Sep-15 07:01N 39°52' W 075°13'0 0.0
2017-Sep-15 06:30N 39°52' W 075°13'0 0.0
2017-Sep-15 06:01N 39°52' W 075°13'0 0.0
2017-Sep-15 05:30N 39°52' W 075°13'0 0.0
2017-Sep-15 05:00N 39°52' W 075°13'0 0.0
2017-Sep-15 04:30N 39°52' W 075°13'0 0.0
2017-Sep-15 04:00N 39°52' W 075°13'0 0.0
2017-Sep-15 03:30N 39°52' W 075°13'0 0.1
2017-Sep-15 03:00N 39°52' W 075°12'0 0.2
2017-Sep-15 02:31N 39°52' W 075°12'0 0.1
2017-Sep-15 02:00N 39°52' W 075°12'0 0.0
2017-Sep-15 01:30N 39°52' W 075°12'0 0.0
2017-Sep-15 01:00N 39°52' W 075°12'  

Dump ship's entire track history